Time;durP1;ratioP1;P1;durP2;ratioP2;P2;SDS_P1;SDS_P2;PMS_P1;PMS_P2;Temp;Humidity;BMP_temperature;BMP_pressure;BME280_temperature;BME280_humidity;BME280_pressure;Samples;Min_cycle;Max_cycle;Signal;HPM_P1;HPM_P2
2023/05/30 00:02:16;;;;;;;15.88;3.17;;;;;;;-143.48;72.11;118439.88;5035477;28;20500;-77
2023/05/30 00:04:41;;;;;;;13.10;2.72;;;;;;;-143.48;72.32;118439.88;5035646;28;20029;-77
2023/05/30 00:07:07;;;;;;;17.50;3.05;;;;;;;-143.48;71.97;118439.88;5017772;28;20028;-77
2023/05/30 00:09:33;;;;;;;18.70;3.08;;;;;;;-143.48;71.69;118439.88;5035415;28;20100;-77
2023/05/30 00:12:00;;;;;;;15.27;3.33;;;;;;;-143.48;71.70;118439.88;5035356;28;20099;-77
2023/05/30 00:14:26;;;;;;;14.77;2.90;;;;;;;-143.48;72.93;118439.88;5017590;28;20049;-77
2023/05/30 00:16:52;;;;;;;28.15;3.50;;;;;;;-143.48;72.11;118439.88;5035240;28;20503;-77
2023/05/30 00:19:19;;;;;;;16.00;3.15;;;;;;;-143.48;72.13;118439.88;5035345;28;20022;-77
2023/05/30 00:21:45;;;;;;;18.10;3.53;;;;;;;-143.48;71.79;118439.88;5035223;28;20021;-77
2023/05/30 00:24:11;;;;;;;18.83;3.45;;;;;;;-143.48;72.32;118439.88;5017372;28;20075;-77
2023/05/30 00:26:36;;;;;;;13.32;3.08;;;;;;;-143.48;72.11;118439.88;5017358;28;20049;-77
2023/05/30 00:29:01;;;;;;;18.95;3.00;;;;;;;-143.48;71.80;118439.88;5035387;28;20033;-77
2023/05/30 00:31:27;;;;;;;21.20;3.80;;;;;;;-143.48;71.58;118439.88;5035057;28;20022;-77
2023/05/30 00:33:52;;;;;;;16.00;2.85;;;;;;;-143.48;72.43;118439.88;5016473;28;20369;-77
2023/05/30 00:36:17;;;;;;;21.52;3.38;;;;;;;-143.48;72.07;118439.88;5017395;28;20103;-77
2023/05/30 00:38:43;;;;;;;16.02;3.20;;;;;;;-143.48;72.45;118439.88;5017306;28;20021;-77
2023/05/30 00:41:08;;;;;;;17.13;2.92;;;;;;;-143.48;72.82;118439.88;5035073;28;20066;-77
2023/05/30 00:43:33;;;;;;;16.17;3.10;;;;;;;-143.48;71.91;118439.88;5034666;28;20530;-77
2023/05/30 00:45:59;;;;;;;10.75;2.63;;;;;;;-143.48;72.40;118439.88;5017008;28;20409;-77
2023/05/30 00:48:25;;;;;;;18.90;3.20;;;;;;;-143.48;72.71;118439.88;5034938;28;20507;-77
2023/05/30 00:50:51;;;;;;;21.70;3.40;;;;;;;-143.48;73.15;118439.88;5034671;28;20109;-77
2023/05/30 00:53:19;;;;;;;15.18;3.58;;;;;;;-143.48;73.14;118439.88;5034741;28;20127;-77
2023/05/30 00:55:44;;;;;;;18.48;3.95;;;;;;;-143.48;72.05;118439.88;5016777;28;20060;-77
2023/05/30 00:58:11;;;;;;;16.67;3.13;;;;;;;-143.48;73.33;118439.88;5034577;28;20064;-77
2023/05/30 01:00:38;;;;;;;18.60;3.53;;;;;;;-143.48;73.68;118439.88;5034368;28;20052;-77
2023/05/30 01:03:04;;;;;;;20.10;2.92;;;;;;;-143.48;73.43;118439.88;5016741;28;20033;-78
2023/05/30 01:05:30;;;;;;;12.38;3.00;;;;;;;-143.48;73.94;118439.88;5016655;28;20041;-77
2023/05/30 01:07:56;;;;;;;12.73;3.25;;;;;;;-143.48;73.24;118439.88;5016695;28;20021;-77
2023/05/30 01:10:22;;;;;;;20.58;3.30;;;;;;;-143.48;73.96;118439.88;5034385;28;20477;-77
2023/05/30 01:12:53;;;;;;;15.93;3.05;;;;;;;-143.48;74.40;118439.88;5016534;28;20021;-77
2023/05/30 01:15:27;;;;;;;14.13;3.28;;;;;;;-143.48;74.77;118439.88;5034157;28;20022;-77
2023/05/30 01:18:03;;;;;;;15.02;3.47;;;;;;;-143.48;74.35;118439.88;5034244;28;20036;-77
2023/05/30 01:20:36;;;;;;;15.23;2.72;;;;;;;-143.48;74.90;118439.88;5016434;28;20022;-77
2023/05/30 01:23:24;;;;;;;16.77;2.97;;;;;;;-143.48;75.01;118439.88;5016356;28;20096;-77
2023/05/30 01:26:05;;;;;;;13.50;3.15;;;;;;;-143.48;74.94;118439.88;5034199;28;20021;-77
2023/05/30 01:28:33;;;;;;;14.80;2.97;;;;;;;-143.48;75.57;118439.88;5033957;28;20032;-77
2023/05/30 01:31:00;;;;;;;15.23;3.20;;;;;;;-143.48;75.64;118439.88;5016227;28;20033;-77
2023/05/30 01:33:27;;;;;;;17.63;3.60;;;;;;;-143.48;75.92;118439.88;5016250;28;20078;-77
2023/05/30 01:35:53;;;;;;;19.90;4.00;;;;;;;-143.48;76.29;118439.88;5033814;28;20127;-77
2023/05/30 01:38:18;;;;;;;16.27;3.05;;;;;;;-143.48;76.24;118439.88;5016064;28;20053;-77
2023/05/30 01:40:50;;;;;;;14.15;3.10;;;;;;;-143.48;75.62;118439.88;5016218;28;20038;-77
2023/05/30 01:43:38;;;;;;;16.10;3.05;;;;;;;-143.48;76.92;118439.88;5015911;28;20036;-77
2023/05/30 01:46:33;;;;;;;13.70;3.10;;;;;;;-143.48;76.41;118439.88;5016145;28;20036;-77
2023/05/30 01:49:21;;;;;;;17.70;3.25;;;;;;;-143.48;76.65;118439.88;5015962;28;20028;-77
2023/05/30 01:52:07;;;;;;;11.52;2.97;;;;;;;-143.48;77.20;118439.88;5033647;28;20036;-77
2023/05/30 01:54:34;;;;;;;20.70;3.88;;;;;;;-143.48;77.46;118439.88;5033757;28;20036;-77
2023/05/30 01:57:09;;;;;;;24.25;3.35;;;;;;;-143.48;77.61;118439.88;5015918;28;20468;-77
2023/05/30 01:59:37;;;;;;;15.05;3.20;;;;;;;-143.48;78.01;118439.88;5015711;28;20049;-77
2023/05/30 02:02:02;;;;;;;13.40;3.00;;;;;;;-143.48;77.98;118439.88;5015960;28;20119;-77
2023/05/30 02:04:28;;;;;;;14.25;3.00;;;;;;;-143.48;77.62;118439.88;5015720;28;20116;-77
2023/05/30 02:06:53;;;;;;;13.07;3.05;;;;;;;-143.48;78.16;118439.88;5015981;28;20021;-77
2023/05/30 02:09:18;;;;;;;11.30;3.03;;;;;;;-143.48;78.22;118439.88;5033652;28;20025;-77
2023/05/30 02:11:44;;;;;;;13.85;3.40;;;;;;;-143.48;78.06;118439.88;5015714;28;20477;-77
2023/05/30 02:14:09;;;;;;;16.00;3.17;;;;;;;-143.48;78.64;118439.88;5033618;28;20488;-77
2023/05/30 02:16:35;;;;;;;13.20;3.20;;;;;;;-143.48;77.63;118439.88;5015898;28;20056;-77
2023/05/30 02:19:00;;;;;;;22.35;3.50;;;;;;;-143.48;78.12;118439.88;5015813;28;20022;-77
2023/05/30 02:21:26;;;;;;;17.58;3.58;;;;;;;-143.48;77.91;118439.88;5033511;28;20033;-77
2023/05/30 02:23:51;;;;;;;13.57;3.25;;;;;;;-143.48;78.18;118439.88;5015974;28;20033;-77
2023/05/30 02:26:16;;;;;;;15.70;3.40;;;;;;;-143.48;79.43;118439.88;5033586;28;20076;-77
2023/05/30 02:28:42;;;;;;;15.65;3.40;;;;;;;-143.48;79.41;118439.88;5015899;28;20029;-77
2023/05/30 02:31:07;;;;;;;14.80;3.63;;;;;;;-143.48;78.46;118439.88;5033635;28;20106;-77
2023/05/30 02:33:33;;;;;;;14.57;3.20;;;;;;;-143.48;77.79;118439.88;5015497;28;20465;-77
2023/05/30 02:35:58;;;;;;;11.80;3.20;;;;;;;-143.48;77.81;118439.88;5033344;28;20533;-77
2023/05/30 02:38:23;;;;;;;12.52;3.40;;;;;;;-143.48;78.22;118439.88;5015940;28;20400;-77
2023/05/30 02:40:48;;;;;;;14.65;3.00;;;;;;;-143.48;78.09;118439.88;5015962;28;20021;-77
2023/05/30 02:43:14;;;;;;;16.85;3.50;;;;;;;-143.48;77.88;118439.88;5033188;28;20021;-77
2023/05/30 02:45:39;;;;;;;12.98;3.40;;;;;;;-143.48;77.71;118439.88;5033379;28;20072;-77
2023/05/30 02:48:05;;;;;;;21.33;3.65;;;;;;;-143.48;77.52;118439.88;5033459;28;20032;-77
2023/05/30 02:50:31;;;;;;;10.98;3.00;;;;;;;-143.48;76.67;118439.88;5033302;28;20034;-77
2023/05/30 02:52:56;;;;;;;13.65;3.28;;;;;;;-143.48;76.96;118439.88;5033310;28;20127;-77
2023/05/30 02:55:21;;;;;;;17.67;3.60;;;;;;;-143.48;77.31;118439.88;5033559;28;20060;-77
2023/05/30 02:57:47;;;;;;;12.52;3.25;;;;;;;-143.48;77.76;118439.88;5019355;28;20022;-77
2023/05/30 03:00:13;;;;;;;17.38;3.53;;;;;;;-143.48;77.87;118439.88;5037043;28;20124;-76
2023/05/30 03:02:39;;;;;;;16.80;3.63;;;;;;;-143.48;77.23;118439.88;5019246;28;20129;-77
2023/05/30 03:05:05;;;;;;;15.15;3.28;;;;;;;-143.48;77.69;118439.88;5019260;28;20100;-77
2023/05/30 03:07:32;;;;;;;18.83;3.70;;;;;;;-143.48;77.90;118439.88;5036680;28;20087;-77
2023/05/30 03:09:57;;;;;;;12.93;2.97;;;;;;;-143.48;77.67;118439.88;5019169;28;20021;-77
2023/05/30 03:12:22;;;;;;;14.07;3.22;;;;;;;-143.48;76.87;118439.88;5036739;28;20452;-77
2023/05/30 03:14:48;;;;;;;11.90;3.45;;;;;;;-143.48;76.48;118439.88;5036979;28;20040;-77
2023/05/30 03:17:15;;;;;;;13.38;2.92;;;;;;;-143.48;76.54;118439.88;5036496;28;20079;-77
2023/05/30 03:19:41;;;;;;;13.27;3.20;;;;;;;-143.48;76.67;118439.88;5018854;28;20017;-77
2023/05/30 03:22:07;;;;;;;17.70;3.47;;;;;;;-143.48;77.47;118439.88;5036615;28;20025;-77
2023/05/30 03:24:33;;;;;;;11.18;3.00;;;;;;;-143.48;77.46;118439.88;5036508;28;20014;-77
2023/05/30 03:26:58;;;;;;;15.02;3.55;;;;;;;-143.48;77.03;118439.88;5036363;28;20026;-77
2023/05/30 03:29:23;;;;;;;13.23;3.08;;;;;;;-143.48;76.83;118439.88;5018668;28;20156;-77
2023/05/30 03:31:49;;;;;;;10.82;3.80;;;;;;;-143.48;75.08;118439.88;5018652;28;20028;-77
2023/05/30 03:34:15;;;;;;;12.70;3.00;;;;;;;-143.48;74.82;118439.88;5036401;28;20045;-77
2023/05/30 03:36:41;;;;;;;12.35;3.45;;;;;;;-143.48;75.01;118439.88;5018493;28;20489;-77
2023/05/30 03:39:06;;;;;;;14.05;3.35;;;;;;;-143.48;75.19;118439.88;5035902;28;20028;-77
2023/05/30 03:41:32;;;;;;;11.57;3.25;;;;;;;-143.48;74.59;118439.88;5035884;28;20468;-77
2023/05/30 03:43:57;;;;;;;11.52;3.35;;;;;;;-143.48;74.91;118439.88;5035677;28;20064;-77
2023/05/30 03:46:22;;;;;;;13.57;3.15;;;;;;;-143.48;74.18;118439.88;5018091;28;20056;-77
2023/05/30 03:48:48;;;;;;;12.80;3.00;;;;;;;-143.48;73.84;118439.88;5035649;28;20031;-77
2023/05/30 03:51:13;;;;;;;12.57;3.10;;;;;;;-143.48;73.43;118439.88;5017588;28;20084;-77
2023/05/30 03:53:38;;;;;;;12.35;3.10;;;;;;;-143.48;73.32;118439.88;5035754;28;20384;-77
2023/05/30 03:56:05;;;;;;;14.07;3.30;;;;;;;-143.48;73.27;118439.88;5035804;28;20029;-77
2023/05/30 03:58:31;;;;;;;16.65;3.53;;;;;;;-143.48;73.63;118439.88;5035808;28;20064;-77
2023/05/30 04:00:57;;;;;;;12.07;3.55;;;;;;;-143.48;73.91;118439.88;5035562;28;20049;-77
2023/05/30 04:03:23;;;;;;;12.52;3.30;;;;;;;-143.48;73.10;118439.88;5018102;28;20025;-77
2023/05/30 04:05:48;;;;;;;12.07;3.38;;;;;;;-143.48;72.71;118439.88;5017854;28;20064;-78
2023/05/30 04:08:14;;;;;;;10.65;3.25;;;;;;;-143.48;73.29;118439.88;5016599;28;20104;-77
2023/05/30 04:10:40;;;;;;;15.27;3.20;;;;;;;-143.48;72.92;118439.88;5035606;28;20029;-77
2023/05/30 04:13:05;;;;;;;14.00;3.58;;;;;;;-143.48;73.15;118439.88;5035436;28;20026;-77
2023/05/30 04:15:31;;;;;;;14.07;3.30;;;;;;;-143.48;72.26;118439.88;5035434;28;20025;-77
2023/05/30 04:17:57;;;;;;;12.73;3.45;;;;;;;-143.48;73.06;118439.88;5035422;28;20083;-77
2023/05/30 04:20:23;;;;;;;9.90;3.10;;;;;;;-143.48;73.29;118439.88;5017573;28;20163;-77
2023/05/30 04:22:49;;;;;;;11.43;3.60;;;;;;;-143.48;71.99;118439.88;5035138;28;20079;-77
2023/05/30 04:25:14;;;;;;;10.77;3.38;;;;;;;-143.48;71.53;118439.88;5017374;28;20485;-77
2023/05/30 04:27:41;;;;;;;10.68;3.05;;;;;;;-143.48;71.89;118439.88;5035227;28;20025;-77
2023/05/30 04:30:07;;;;;;;14.35;3.28;;;;;;;-143.48;71.00;118439.88;5017242;28;20029;-77
2023/05/30 04:32:33;;;;;;;10.38;3.33;;;;;;;-143.48;71.28;118439.88;5017410;28;20037;-78
2023/05/30 04:35:01;;;;;;;10.63;3.38;;;;;;;-143.48;70.25;118439.88;5017427;28;20032;-77
2023/05/30 04:37:27;;;;;;;15.15;3.33;;;;;;;-143.48;70.36;118439.88;5035103;28;20025;-77
2023/05/30 04:39:55;;;;;;;12.50;3.33;;;;;;;-143.48;70.44;118439.88;5017510;28;20029;-77
2023/05/30 04:42:26;;;;;;;14.05;3.88;;;;;;;-143.48;68.75;118439.88;5034926;28;20033;-77
2023/05/30 04:44:53;;;;;;;12.32;3.40;;;;;;;-143.48;69.97;118439.88;5034871;28;20049;-77
2023/05/30 04:47:21;;;;;;;15.57;3.35;;;;;;;-143.48;69.18;118439.88;5017296;28;20031;-77
2023/05/30 04:49:46;;;;;;;13.10;3.38;;;;;;;-143.48;68.50;118439.88;5017112;28;20389;-77
2023/05/30 04:52:12;;;;;;;12.48;3.10;;;;;;;-143.48;68.06;118439.88;5017277;28;20032;-77
2023/05/30 04:54:37;;;;;;;14.15;3.42;;;;;;;-143.48;67.42;118439.88;5034904;28;20017;-78
2023/05/30 04:57:02;;;;;;;15.32;3.63;;;;;;;-143.48;67.90;118439.88;5016884;28;20029;-77
2023/05/30 04:59:28;;;;;;;11.40;3.53;;;;;;;-143.48;67.26;118439.88;5016738;28;20064;-78
2023/05/30 05:01:53;;;;;;;16.00;3.03;;;;;;;-143.48;66.56;118439.88;5034772;28;20021;-77
2023/05/30 05:04:19;;;;;;;14.18;3.20;;;;;;;-143.48;66.59;118439.88;5034503;28;20104;-77
2023/05/30 05:06:44;;;;;;;12.40;3.15;;;;;;;-143.48;66.87;118439.88;5016772;28;20017;-77
2023/05/30 05:09:10;;;;;;;10.65;3.08;;;;;;;-143.48;66.54;118439.88;5034560;28;20055;-77
2023/05/30 05:11:36;;;;;;;15.57;3.45;;;;;;;-143.48;65.86;118439.88;5017000;28;20025;-77
2023/05/30 05:14:01;;;;;;;9.95;3.17;;;;;;;-143.48;65.53;118439.88;5016744;28;20026;-78
2023/05/30 05:16:26;;;;;;;13.30;3.13;;;;;;;-143.48;65.68;118439.88;5016857;28;20029;-78
2023/05/30 05:18:52;;;;;;;12.73;3.50;;;;;;;-143.48;65.46;118439.88;5016788;28;20025;-77
2023/05/30 05:21:17;;;;;;;16.55;3.50;;;;;;;-143.48;65.50;118439.88;5016951;28;20029;-76
2023/05/30 05:23:42;;;;;;;12.55;3.38;;;;;;;-143.48;64.63;118439.88;5034248;28;20025;-76
2023/05/30 05:26:08;;;;;;;16.58;3.50;;;;;;;-143.48;64.87;118439.88;5034785;28;20112;-77
2023/05/30 05:28:33;;;;;;;13.57;3.33;;;;;;;-143.48;64.91;118439.88;5016944;28;20032;-77
2023/05/30 05:30:58;;;;;;;15.85;3.53;;;;;;;-143.48;64.28;118439.88;5034160;28;20528;-76
2023/05/30 05:33:24;;;;;;;13.13;3.10;;;;;;;-143.48;65.09;118439.88;5034429;28;20018;-77
2023/05/30 05:35:49;;;;;;;16.20;3.58;;;;;;;-143.48;63.95;118439.88;5034601;28;20025;-77
2023/05/30 05:38:16;;;;;;;15.00;4.03;;;;;;;-143.48;64.67;118439.88;5017193;28;20025;-77
2023/05/30 05:40:41;;;;;;;11.35;3.10;;;;;;;-143.48;63.48;118439.88;5016863;28;20033;-77
2023/05/30 05:43:07;;;;;;;14.32;3.40;;;;;;;-143.48;62.41;118439.88;5034570;28;20075;-77
2023/05/30 05:45:32;;;;;;;11.88;3.20;;;;;;;-143.48;61.84;118439.88;5016462;28;20111;-77
2023/05/30 05:47:58;;;;;;;12.73;3.50;;;;;;;-143.48;61.76;118439.88;5034218;28;20025;-77
2023/05/30 05:50:23;;;;;;;10.25;3.35;;;;;;;-143.48;59.49;118439.88;5034380;28;20029;-76
2023/05/30 05:52:49;;;;;;;16.20;3.50;;;;;;;-143.48;60.24;118439.88;5016264;28;20374;-78
2023/05/30 05:55:14;;;;;;;13.02;3.30;;;;;;;-143.48;59.81;118439.88;5016179;28;20026;-77
2023/05/30 05:57:39;;;;;;;15.30;3.45;;;;;;;-143.48;60.93;118439.88;5016085;28;20469;-77
2023/05/30 06:00:06;;;;;;;16.40;3.20;;;;;;;-143.48;59.60;118439.88;5015583;28;20041;-77
2023/05/30 06:02:31;;;;;;;11.93;3.05;;;;;;;-143.48;59.54;118439.88;5015554;28;20029;-76
2023/05/30 06:04:56;;;;;;;19.27;3.55;;;;;;;-143.48;57.54;118439.88;5015617;28;20025;-77
2023/05/30 06:07:22;;;;;;;15.93;3.30;;;;;;;-143.48;57.40;118439.88;5015660;28;20400;-78
2023/05/30 06:09:47;;;;;;;16.10;3.30;;;;;;;-143.48;54.37;118439.88;5015588;28;20026;-77
2023/05/30 06:12:12;;;;;;;13.88;3.67;;;;;;;-143.48;55.36;118439.88;5033306;28;20072;-77
2023/05/30 06:14:38;;;;;;;13.88;3.00;;;;;;;-143.48;56.92;118439.88;5015620;28;20377;-77
2023/05/30 06:17:05;;;;;;;16.63;3.22;;;;;;;-143.48;58.15;118439.88;5015659;28;20032;-77
2023/05/30 06:19:30;;;;;;;13.45;2.95;;;;;;;-143.48;57.03;118439.88;5015656;28;20022;-77
2023/05/30 06:21:56;;;;;;;10.55;3.20;;;;;;;-143.48;57.83;118439.88;5033547;28;20082;-77
2023/05/30 06:24:21;;;;;;;14.00;3.55;;;;;;;-143.48;57.83;118439.88;5032988;28;20029;-77
2023/05/30 06:26:46;;;;;;;11.65;3.20;;;;;;;-143.48;56.19;118439.88;5015495;28;20068;-77
2023/05/30 06:29:12;;;;;;;12.13;3.53;;;;;;;-143.48;57.65;118439.88;5015597;28;20022;-77
2023/05/30 06:31:37;;;;;;;12.75;3.38;;;;;;;-143.48;57.68;118439.88;5015071;28;20093;-77
2023/05/30 06:34:02;;;;;;;20.73;3.88;;;;;;;-143.48;59.09;118439.88;5033485;28;20022;-76
2023/05/30 06:36:28;;;;;;;17.23;3.47;;;;;;;-143.48;57.31;118439.88;5033612;28;20021;-77
2023/05/30 06:38:53;;;;;;;12.48;3.05;;;;;;;-143.48;58.85;118439.88;5015413;28;20409;-77
2023/05/30 06:41:18;;;;;;;13.23;3.10;;;;;;;-143.48;57.40;118439.88;5033064;28;20033;-77
2023/05/30 06:43:44;;;;;;;14.90;3.58;;;;;;;-143.48;58.53;118439.88;5033040;28;20530;-77
2023/05/30 06:46:09;;;;;;;16.48;3.67;;;;;;;-143.48;57.83;118439.88;5015243;28;20517;-77
2023/05/30 06:48:34;;;;;;;15.95;3.50;;;;;;;-143.48;57.86;118439.88;5033150;28;20026;-78
2023/05/30 06:50:59;;;;;;;12.43;3.15;;;;;;;-143.48;56.62;118439.88;5032995;28;20064;-77
2023/05/30 06:53:25;;;;;;;12.93;3.38;;;;;;;-143.48;55.60;118439.88;5015411;28;20033;-78
2023/05/30 06:55:50;;;;;;;11.73;3.30;;;;;;;-143.48;55.14;118439.88;5032773;28;20029;-77
2023/05/30 06:58:17;;;;;;;18.85;3.50;;;;;;;-143.48;53.78;118439.88;5032761;28;20459;-77
2023/05/30 07:00:43;;;;;;;17.58;3.70;;;;;;;-143.48;54.55;118439.88;5014972;28;20468;-77
2023/05/30 07:03:08;;;;;;;21.05;3.50;;;;;;;-143.48;55.29;118439.88;5032788;28;20025;-77
2023/05/30 07:05:33;;;;;;;15.98;3.83;;;;;;;-143.48;55.41;118439.88;5032813;28;20448;-78
2023/05/30 07:07:59;;;;;;;14.18;3.42;;;;;;;-143.48;54.16;118439.88;5014990;28;20025;-77
2023/05/30 07:10:24;;;;;;;23.75;3.80;;;;;;;-143.48;54.83;118439.88;5032676;28;20021;-78
2023/05/30 07:12:52;;;;;;;15.98;4.13;;;;;;;-143.48;56.33;118439.88;5015021;28;20021;-77
2023/05/30 07:15:17;;;;;;;13.27;3.28;;;;;;;-143.48;54.12;118439.88;5032706;28;20049;-77
2023/05/30 07:17:43;;;;;;;12.50;3.25;;;;;;;-143.48;52.85;118439.88;5032827;28;20029;-77
2023/05/30 07:20:08;;;;;;;10.95;3.47;;;;;;;-143.48;54.06;118439.88;5032633;28;20483;-77
2023/05/30 07:22:33;;;;;;;13.50;3.45;;;;;;;-143.48;53.24;118439.88;5014907;28;20179;-78
2023/05/30 07:24:59;;;;;;;15.90;3.55;;;;;;;-143.48;54.74;118439.88;5032551;28;20108;-77
2023/05/30 07:27:24;;;;;;;14.30;3.28;;;;;;;-143.48;54.54;118439.88;5032435;28;20468;-77
2023/05/30 07:29:50;;;;;;;14.88;3.45;;;;;;;-143.48;54.36;118439.88;5032560;28;20053;-77
2023/05/30 07:32:15;;;;;;;12.93;3.20;;;;;;;-143.48;53.49;118439.88;5032638;28;20103;-77
2023/05/30 07:34:41;;;;;;;14.38;3.33;;;;;;;-143.48;52.44;118439.88;5032571;28;20017;-77
2023/05/30 07:37:07;;;;;;;15.27;3.40;;;;;;;-143.48;51.62;118439.88;5032657;28;20503;-78
2023/05/30 07:39:32;;;;;;;16.58;3.38;;;;;;;-143.48;50.50;118439.88;5032516;28;20051;-78
2023/05/30 07:41:57;;;;;;;14.85;3.00;;;;;;;-143.48;50.10;118439.88;5015814;28;20387;-77
2023/05/30 07:44:23;;;;;;;14.00;3.45;;;;;;;-143.48;51.12;118439.88;5018207;28;20030;-78
2023/05/30 07:46:48;;;;;;;14.90;3.50;;;;;;;-143.48;51.04;118439.88;5018154;28;20041;-77
2023/05/30 07:49:14;;;;;;;15.93;3.40;;;;;;;-143.48;52.52;118439.88;5018202;28;20063;-77
2023/05/30 07:51:39;;;;;;;18.05;3.30;;;;;;;-143.48;50.31;118439.88;5035762;28;20026;-77
2023/05/30 07:54:05;;;;;;;13.70;3.38;;;;;;;-143.48;49.66;118439.88;5035825;28;20013;-77
2023/05/30 07:56:30;;;;;;;13.65;3.10;;;;;;;-143.48;48.61;118439.88;5035827;28;20025;-77
2023/05/30 07:58:56;;;;;;;11.15;2.85;;;;;;;-143.48;49.88;118439.88;5017921;28;20112;-77
2023/05/30 08:01:21;;;;;;;12.18;3.35;;;;;;;-143.48;48.64;118439.88;5017753;28;20145;-77
2023/05/30 08:03:46;;;;;;;13.93;3.28;;;;;;;-143.48;48.62;118439.88;5035540;28;20042;-77
2023/05/30 08:06:12;;;;;;;19.35;3.50;;;;;;;-143.48;48.37;118439.88;5035601;28;20456;-77
2023/05/30 08:08:37;;;;;;;13.77;3.05;;;;;;;-143.48;46.87;118439.88;5035842;28;20029;-76
2023/05/30 08:11:02;;;;;;;12.45;3.15;;;;;;;-143.48;46.95;118439.88;5035620;28;20477;-76
2023/05/30 08:13:28;;;;;;;10.50;2.83;;;;;;;-143.48;44.31;118439.88;5018190;28;20040;-76
2023/05/30 08:15:54;;;;;;;13.93;3.20;;;;;;;-143.48;46.89;118439.88;5036148;28;20021;-76
2023/05/30 08:18:21;;;;;;;17.63;3.42;;;;;;;-143.48;43.95;118439.88;5018383;28;20028;-76
2023/05/30 08:20:46;;;;;;;10.48;2.90;;;;;;;-143.48;43.86;118439.88;5035599;28;20021;-76
2023/05/30 08:23:12;;;;;;;8.95;3.08;;;;;;;-143.48;43.96;118439.88;5017840;28;20507;-76
2023/05/30 08:25:42;;;;;;;14.23;2.88;;;;;;;-143.48;44.34;118439.88;5035498;28;20091;-76
2023/05/30 08:28:08;;;;;;;14.40;3.22;;;;;;;-143.48;46.16;118439.88;5017606;28;20370;-76
2023/05/30 08:30:33;;;;;;;15.15;3.30;;;;;;;-143.48;44.77;118439.88;5035488;28;20080;-76
2023/05/30 08:32:58;;;;;;;11.18;3.20;;;;;;;-143.48;46.01;118439.88;5017870;28;20083;-76
2023/05/30 08:35:23;;;;;;;14.02;3.10;;;;;;;-143.48;44.79;118439.88;5035305;28;20478;-76
2023/05/30 08:37:49;;;;;;;12.70;3.22;;;;;;;-143.48;45.10;118439.88;5035555;28;20029;-76
2023/05/30 08:40:15;;;;;;;11.18;3.50;;;;;;;-143.48;43.93;118439.88;5035319;28;20018;-76
2023/05/30 08:42:41;;;;;;;17.48;2.80;;;;;;;-143.48;43.79;118439.88;5017472;28;20022;-76
2023/05/30 08:45:07;;;;;;;13.35;3.38;;;;;;;-143.48;43.97;118439.88;5017601;28;20025;-76
2023/05/30 08:47:33;;;;;;;13.45;3.08;;;;;;;-143.48;42.38;118439.88;5017292;28;20025;-77
2023/05/30 08:50:03;;;;;;;7.97;2.95;;;;;;;-143.48;43.79;118439.88;5034919;28;20026;-77
2023/05/30 08:52:31;;;;;;;13.20;2.90;;;;;;;-143.48;42.33;118439.88;5035202;28;20063;-76
2023/05/30 08:55:16;;;;;;;10.88;2.95;;;;;;;-143.48;41.40;118439.88;5016571;28;20017;-76
2023/05/30 08:58:24;;;;;;;9.27;2.88;;;;;;;-143.48;43.30;118439.88;5034927;28;20041;-76
2023/05/30 09:00:51;;;;;;;11.82;3.60;;;;;;;-143.48;42.86;118439.88;4957904;28;20054;-77
2023/05/30 09:03:18;;;;;;;9.50;3.20;;;;;;;-143.48;42.69;118439.88;4957674;28;20035;-76
2023/05/30 09:05:46;;;;;;;10.93;3.20;;;;;;;-143.48;41.71;118439.88;5004940;28;20124;-76
2023/05/30 09:08:12;;;;;;;13.05;3.00;;;;;;;-143.48;42.29;118439.88;5016891;28;20021;-77
2023/05/30 09:10:41;;;;;;;9.85;2.97;;;;;;;-143.48;42.39;118439.88;5033938;28;20057;-76
2023/05/30 09:13:06;;;;;;;10.13;2.78;;;;;;;-143.48;41.55;118439.88;5017102;28;20160;-76
2023/05/30 09:15:32;;;;;;;12.38;3.20;;;;;;;-143.48;41.88;118439.88;5016659;28;20091;-77
2023/05/30 09:17:57;;;;;;;10.27;2.90;;;;;;;-143.48;42.51;118439.88;5034209;28;20127;-76
2023/05/30 09:20:23;;;;;;;15.00;3.10;;;;;;;-143.48;43.00;118439.88;5016338;28;20017;-77
2023/05/30 09:22:50;;;;;;;9.73;2.65;;;;;;;-143.48;43.94;118439.88;5016285;28;20021;-76
2023/05/30 09:25:15;;;;;;;9.30;2.75;;;;;;;-143.48;43.67;118439.88;5016418;28;20503;-76
2023/05/30 09:27:45;;;;;;;9.93;2.72;;;;;;;-143.48;44.55;118439.88;5016266;28;20026;-77
2023/05/30 09:30:11;;;;;;;7.57;2.60;;;;;;;-143.48;43.46;118439.88;5016024;28;20024;-77
2023/05/30 09:32:38;;;;;;;8.65;2.40;;;;;;;-143.48;44.39;118439.88;5033840;28;20418;-77
2023/05/30 09:35:06;;;;;;;10.07;2.88;;;;;;;-143.48;41.10;118439.88;5016729;28;20028;-76
2023/05/30 09:37:43;;;;;;;8.57;2.75;;;;;;;-143.48;42.62;118439.88;5034337;28;20576;-77
2023/05/30 09:40:15;;;;;;;10.88;2.75;;;;;;;-143.48;43.38;118439.88;5034300;28;20049;-77
2023/05/30 09:42:45;;;;;;;11.82;3.08;;;;;;;-143.48;41.66;118439.88;5016591;28;20120;-75
2023/05/30 09:45:12;;;;;;;12.02;3.10;;;;;;;-143.48;42.49;118439.88;5016383;28;20117;-76
2023/05/30 09:47:44;;;;;;;8.45;2.70;;;;;;;-143.48;42.07;118439.88;5034111;28;20049;-77
2023/05/30 09:50:12;;;;;;;7.78;2.20;;;;;;;-143.48;43.38;118439.88;5016442;28;20388;-76
2023/05/30 09:52:38;;;;;;;8.10;2.70;;;;;;;-143.48;45.15;118439.88;5034041;28;20420;-76
2023/05/30 09:55:06;;;;;;;8.60;2.63;;;;;;;-143.48;42.83;118439.88;5016438;28;20025;-76
2023/05/30 09:57:45;;;;;;;7.57;2.50;;;;;;;-143.48;43.92;118439.88;5016459;28;20021;-76
2023/05/30 10:00:13;;;;;;;8.35;2.35;;;;;;;-143.48;43.97;118439.88;5033915;28;20051;-75
2023/05/30 10:02:53;;;;;;;4.53;2.35;;;;;;;-143.48;42.35;118439.88;5016238;28;20036;-76
2023/05/30 10:05:24;;;;;;;7.45;2.60;;;;;;;-143.48;42.79;118439.88;5016070;28;20026;-76
2023/05/30 10:07:51;;;;;;;7.07;2.50;;;;;;;-143.48;44.23;118439.88;5033898;28;20029;-77
2023/05/30 10:10:17;;;;;;;9.02;2.60;;;;;;;-143.48;47.15;118439.88;5033149;28;20025;-76
2023/05/30 10:12:45;;;;;;;6.90;2.58;;;;;;;-143.48;46.18;118439.88;5015956;28;20026;-76
2023/05/30 10:15:11;;;;;;;8.40;2.58;;;;;;;-143.48;46.45;118439.88;5033648;28;20049;-76
2023/05/30 10:17:44;;;;;;;11.77;2.78;;;;;;;-143.48;46.92;118439.88;5014772;28;20676;-76
2023/05/30 10:20:13;;;;;;;8.00;2.42;;;;;;;-143.48;48.22;118439.88;5033323;28;20036;-76
2023/05/30 10:22:42;;;;;;;9.80;3.10;;;;;;;-143.48;48.22;118439.88;5033446;28;20029;-76
2023/05/30 10:25:15;;;;;;;18.90;6.78;;;;;;;-143.48;49.24;118439.88;5032885;28;20096;-78
2023/05/30 10:27:48;;;;;;;9.88;3.20;;;;;;;-143.48;51.77;118439.88;5033640;28;20021;-76
2023/05/30 10:30:21;;;;;;;9.20;3.03;;;;;;;-143.48;52.86;118439.88;5032852;28;20100;-77
2023/05/30 10:32:53;;;;;;;9.90;2.97;;;;;;;-143.48;52.66;118439.88;5033569;28;20030;-76
2023/05/30 10:35:20;;;;;;;7.60;2.43;;;;;;;-143.48;53.68;118439.88;5033555;28;20458;-77
2023/05/30 10:37:47;;;;;;;6.28;2.40;;;;;;;-143.48;55.06;118439.88;5015276;28;20319;-77
2023/05/30 10:40:23;;;;;;;7.05;2.58;;;;;;;-143.48;53.74;118439.88;5016105;28;20139;-77
2023/05/30 10:43:02;;;;;;;8.65;3.10;;;;;;;-143.48;54.90;118439.88;5015639;28;20465;-77
2023/05/30 10:45:39;;;;;;;6.10;2.90;;;;;;;-143.48;55.80;118439.88;5033582;28;20108;-77
2023/05/30 10:48:38;;;;;;;9.40;2.85;;;;;;;-143.48;55.68;118439.88;5015556;28;20112;-77
2023/05/30 10:51:04;;;;;;;8.43;2.80;;;;;;;-143.48;56.59;118439.88;5015456;28;20030;-76
2023/05/30 10:53:42;;;;;;;8.73;2.78;;;;;;;-143.48;57.46;118439.88;5033529;28;20075;-77
2023/05/30 10:56:27;;;;;;;7.32;2.92;;;;;;;-143.48;56.56;118439.88;5033142;28;20456;-77
2023/05/30 10:58:53;;;;;;;8.07;2.80;;;;;;;-143.48;54.93;118439.88;5032837;28;20040;-77
2023/05/30 11:01:25;;;;;;;11.63;2.80;;;;;;;-143.48;55.44;118439.88;5032937;28;20409;-77
2023/05/30 11:04:12;;;;;;;5.15;2.53;;;;;;;-143.48;55.72;118439.88;5015334;28;20033;-77